sensor_id;sensor_type;location;lat;lon;timestamp;temperature;humidity
3648;DHT22;1840;48.892;15.312;2024-02-21T00:00:59;3.90;97.80
3648;DHT22;1840;48.892;15.312;2024-02-21T00:03:28;4.00;97.50
3648;DHT22;1840;48.892;15.312;2024-02-21T00:05:56;4.00;97.30
3648;DHT22;1840;48.892;15.312;2024-02-21T00:08:25;4.10;97.50
3648;DHT22;1840;48.892;15.312;2024-02-21T00:10:53;4.10;97.20
3648;DHT22;1840;48.892;15.312;2024-02-21T00:13:23;4.20;97.50
3648;DHT22;1840;48.892;15.312;2024-02-21T00:15:52;4.20;97.30
3648;DHT22;1840;48.892;15.312;2024-02-21T00:18:20;4.20;97.30
3648;DHT22;1840;48.892;15.312;2024-02-21T00:20:52;4.10;97.30
3648;DHT22;1840;48.892;15.312;2024-02-21T00:23:20;4.00;97.20
3648;DHT22;1840;48.892;15.312;2024-02-21T00:25:49;4.10;97.30
3648;DHT22;1840;48.892;15.312;2024-02-21T00:28:17;4.20;97.20
3648;DHT22;1840;48.892;15.312;2024-02-21T00:30:47;4.20;97.00
3648;DHT22;1840;48.892;15.312;2024-02-21T00:33:17;4.20;97.30
3648;DHT22;1840;48.892;15.312;2024-02-21T00:35:45;4.20;97.10
3648;DHT22;1840;48.892;15.312;2024-02-21T00:38:14;4.20;97.10
3648;DHT22;1840;48.892;15.312;2024-02-21T00:40:42;4.20;97.10
3648;DHT22;1840;48.892;15.312;2024-02-21T00:43:10;4.20;97.30
3648;DHT22;1840;48.892;15.312;2024-02-21T00:45:39;4.20;96.80
3648;DHT22;1840;48.892;15.312;2024-02-21T00:48:09;4.10;97.00
3648;DHT22;1840;48.892;15.312;2024-02-21T00:50:38;4.00;97.10
3648;DHT22;1840;48.892;15.312;2024-02-21T00:53:07;4.00;97.40
3648;DHT22;1840;48.892;15.312;2024-02-21T00:55:36;3.90;97.10
3648;DHT22;1840;48.892;15.312;2024-02-21T00:58:05;3.90;97.20
3648;DHT22;1840;48.892;15.312;2024-02-21T01:00:34;3.90;97.30
3648;DHT22;1840;48.892;15.312;2024-02-21T01:03:02;3.80;97.40
3648;DHT22;1840;48.892;15.312;2024-02-21T01:05:32;3.90;97.30
3648;DHT22;1840;48.892;15.312;2024-02-21T01:08:01;3.90;97.50
3648;DHT22;1840;48.892;15.312;2024-02-21T01:10:29;3.80;97.30
3648;DHT22;1840;48.892;15.312;2024-02-21T01:12:57;3.80;97.40
3648;DHT22;1840;48.892;15.312;2024-02-21T01:15:26;3.90;97.30
3648;DHT22;1840;48.892;15.312;2024-02-21T01:17:54;4.00;97.20
3648;DHT22;1840;48.892;15.312;2024-02-21T01:20:23;4.00;97.20
3648;DHT22;1840;48.892;15.312;2024-02-21T01:22:53;4.00;97.00
3648;DHT22;1840;48.892;15.312;2024-02-21T01:25:21;4.00;97.10
3648;DHT22;1840;48.892;15.312;2024-02-21T01:27:49;3.80;96.90
3648;DHT22;1840;48.892;15.312;2024-02-21T01:30:18;3.70;97.00
3648;DHT22;1840;48.892;15.312;2024-02-21T01:32:47;3.60;97.20
3648;DHT22;1840;48.892;15.312;2024-02-21T01:35:15;3.60;97.00
3648;DHT22;1840;48.892;15.312;2024-02-21T01:37:43;3.50;97.20
3648;DHT22;1840;48.892;15.312;2024-02-21T01:40:15;3.40;97.30
3648;DHT22;1840;48.892;15.312;2024-02-21T01:42:43;3.30;97.30
3648;DHT22;1840;48.892;15.312;2024-02-21T01:45:11;3.30;97.40
3648;DHT22;1840;48.892;15.312;2024-02-21T01:47:44;3.30;97.20
3648;DHT22;1840;48.892;15.312;2024-02-21T01:50:13;3.10;97.10
3648;DHT22;1840;48.892;15.312;2024-02-21T01:52:43;2.90;97.00
3648;DHT22;1840;48.892;15.312;2024-02-21T01:55:16;2.80;97.20
3648;DHT22;1840;48.892;15.312;2024-02-21T01:57:45;2.70;97.70
3648;DHT22;1840;48.892;15.312;2024-02-21T02:00:14;2.70;97.70
3648;DHT22;1840;48.892;15.312;2024-02-21T02:02:42;2.70;97.80
3648;DHT22;1840;48.892;15.312;2024-02-21T02:05:12;2.70;98.20
3648;DHT22;1840;48.892;15.312;2024-02-21T02:07:40;2.80;97.60
3648;DHT22;1840;48.892;15.312;2024-02-21T02:10:09;2.70;97.60
3648;DHT22;1840;48.892;15.312;2024-02-21T02:12:39;2.60;97.80
3648;DHT22;1840;48.892;15.312;2024-02-21T02:15:08;2.60;97.70
3648;DHT22;1840;48.892;15.312;2024-02-21T02:17:36;2.50;97.60
3648;DHT22;1840;48.892;15.312;2024-02-21T02:20:06;2.40;97.90
3648;DHT22;1840;48.892;15.312;2024-02-21T02:22:37;2.20;98.10
3648;DHT22;1840;48.892;15.312;2024-02-21T02:25:09;2.10;98.10
3648;DHT22;1840;48.892;15.312;2024-02-21T02:27:42;2.10;98.10
3648;DHT22;1840;48.892;15.312;2024-02-21T02:30:12;2.00;98.20
3648;DHT22;1840;48.892;15.312;2024-02-21T02:32:44;1.90;98.40
3648;DHT22;1840;48.892;15.312;2024-02-21T02:35:13;1.90;98.50
3648;DHT22;1840;48.892;15.312;2024-02-21T02:37:48;1.90;98.70
3648;DHT22;1840;48.892;15.312;2024-02-21T02:40:18;2.00;98.70
3648;DHT22;1840;48.892;15.312;2024-02-21T02:42:47;1.90;98.70
3648;DHT22;1840;48.892;15.312;2024-02-21T02:45:17;2.00;98.80
3648;DHT22;1840;48.892;15.312;2024-02-21T02:47:45;1.90;99.00
3648;DHT22;1840;48.892;15.312;2024-02-21T02:50:14;1.80;99.00
3648;DHT22;1840;48.892;15.312;2024-02-21T02:52:42;1.80;99.00
3648;DHT22;1840;48.892;15.312;2024-02-21T02:55:11;1.80;99.10
3648;DHT22;1840;48.892;15.312;2024-02-21T02:57:41;1.80;99.10
3648;DHT22;1840;48.892;15.312;2024-02-21T03:00:11;1.70;99.00
3648;DHT22;1840;48.892;15.312;2024-02-21T03:02:41;1.70;98.90
3648;DHT22;1840;48.892;15.312;2024-02-21T03:05:13;1.60;98.80
3648;DHT22;1840;48.892;15.312;2024-02-21T03:07:43;1.60;98.90
3648;DHT22;1840;48.892;15.312;2024-02-21T03:10:12;1.50;98.90
3648;DHT22;1840;48.892;15.312;2024-02-21T03:12:42;1.40;99.10
3648;DHT22;1840;48.892;15.312;2024-02-21T03:15:11;1.30;99.30
3648;DHT22;1840;48.892;15.312;2024-02-21T03:17:40;1.30;99.20
3648;DHT22;1840;48.892;15.312;2024-02-21T03:20:09;1.30;99.20
3648;DHT22;1840;48.892;15.312;2024-02-21T03:22:40;1.20;99.40
3648;DHT22;1840;48.892;15.312;2024-02-21T03:25:09;1.20;99.40
3648;DHT22;1840;48.892;15.312;2024-02-21T03:27:41;1.20;99.40
3648;DHT22;1840;48.892;15.312;2024-02-21T03:30:10;1.30;99.70
3648;DHT22;1840;48.892;15.312;2024-02-21T03:32:39;1.40;99.70
3648;DHT22;1840;48.892;15.312;2024-02-21T03:35:08;1.40;99.50
3648;DHT22;1840;48.892;15.312;2024-02-21T03:37:36;1.50;99.50
3648;DHT22;1840;48.892;15.312;2024-02-21T03:40:08;1.50;99.50
3648;DHT22;1840;48.892;15.312;2024-02-21T03:42:37;1.60;99.60
3648;DHT22;1840;48.892;15.312;2024-02-21T03:45:08;1.60;99.30
3648;DHT22;1840;48.892;15.312;2024-02-21T03:47:37;1.60;99.30
3648;DHT22;1840;48.892;15.312;2024-02-21T03:50:07;1.70;99.40
3648;DHT22;1840;48.892;15.312;2024-02-21T03:52:36;1.60;99.50
3648;DHT22;1840;48.892;15.312;2024-02-21T03:55:05;1.70;99.60
3648;DHT22;1840;48.892;15.312;2024-02-21T03:57:34;1.80;99.40
3648;DHT22;1840;48.892;15.312;2024-02-21T04:00:04;1.70;99.10
3648;DHT22;1840;48.892;15.312;2024-02-21T04:02:39;1.60;99.40
3648;DHT22;1840;48.892;15.312;2024-02-21T04:05:08;1.50;99.50
3648;DHT22;1840;48.892;15.312;2024-02-21T04:07:38;1.40;99.40
3648;DHT22;1840;48.892;15.312;2024-02-21T04:10:08;1.20;99.70
3648;DHT22;1840;48.892;15.312;2024-02-21T04:12:37;1.20;99.90
3648;DHT22;1840;48.892;15.312;2024-02-21T04:15:06;1.30;99.80
3648;DHT22;1840;48.892;15.312;2024-02-21T04:17:35;1.30;99.70
3648;DHT22;1840;48.892;15.312;2024-02-21T04:20:06;1.40;99.90
3648;DHT22;1840;48.892;15.312;2024-02-21T04:22:36;1.50;99.70
3648;DHT22;1840;48.892;15.312;2024-02-21T04:25:05;1.60;99.40
3648;DHT22;1840;48.892;15.312;2024-02-21T04:27:34;1.60;99.60
3648;DHT22;1840;48.892;15.312;2024-02-21T04:30:03;1.70;99.40
3648;DHT22;1840;48.892;15.312;2024-02-21T04:32:31;1.70;99.30
3648;DHT22;1840;48.892;15.312;2024-02-21T04:35:00;1.70;99.50
3648;DHT22;1840;48.892;15.312;2024-02-21T04:37:30;1.80;99.80
3648;DHT22;1840;48.892;15.312;2024-02-21T04:39:59;1.80;99.60
3648;DHT22;1840;48.892;15.312;2024-02-21T04:42:27;1.70;99.90
3648;DHT22;1840;48.892;15.312;2024-02-21T04:44:55;1.80;99.90
3648;DHT22;1840;48.892;15.312;2024-02-21T04:47:24;1.80;99.90
3648;DHT22;1840;48.892;15.312;2024-02-21T04:49:52;1.80;99.90
3648;DHT22;1840;48.892;15.312;2024-02-21T04:52:21;1.90;99.90
3648;DHT22;1840;48.892;15.312;2024-02-21T04:54:51;2.00;99.90
3648;DHT22;1840;48.892;15.312;2024-02-21T04:57:19;1.90;99.90
3648;DHT22;1840;48.892;15.312;2024-02-21T04:59:48;1.80;99.90
3648;DHT22;1840;48.892;15.312;2024-02-21T05:02:16;1.80;99.90
3648;DHT22;1840;48.892;15.312;2024-02-21T05:04:46;1.90;99.90
3648;DHT22;1840;48.892;15.312;2024-02-21T05:07:15;2.00;99.90
3648;DHT22;1840;48.892;15.312;2024-02-21T05:09:43;2.10;99.90
3648;DHT22;1840;48.892;15.312;2024-02-21T05:12:13;2.00;99.90
3648;DHT22;1840;48.892;15.312;2024-02-21T05:14:42;2.10;99.90
3648;DHT22;1840;48.892;15.312;2024-02-21T05:17:10;2.20;99.90
3648;DHT22;1840;48.892;15.312;2024-02-21T05:19:39;2.20;99.90
3648;DHT22;1840;48.892;15.312;2024-02-21T05:22:07;2.40;99.90
3648;DHT22;1840;48.892;15.312;2024-02-21T05:24:36;2.40;99.80
3648;DHT22;1840;48.892;15.312;2024-02-21T05:27:04;2.40;99.90
3648;DHT22;1840;48.892;15.312;2024-02-21T05:29:34;2.60;99.70
3648;DHT22;1840;48.892;15.312;2024-02-21T05:32:03;2.70;99.40
3648;DHT22;1840;48.892;15.312;2024-02-21T05:34:32;2.70;99.30
3648;DHT22;1840;48.892;15.312;2024-02-21T05:37:00;2.70;99.40
3648;DHT22;1840;48.892;15.312;2024-02-21T05:39:29;2.60;99.20
3648;DHT22;1840;48.892;15.312;2024-02-21T05:41:57;2.70;99.40
3648;DHT22;1840;48.892;15.312;2024-02-21T05:44:26;2.80;99.10
3648;DHT22;1840;48.892;15.312;2024-02-21T05:46:56;2.90;99.10
3648;DHT22;1840;48.892;15.312;2024-02-21T05:49:24;2.80;98.90
3648;DHT22;1840;48.892;15.312;2024-02-21T05:51:53;2.80;98.90
3648;DHT22;1840;48.892;15.312;2024-02-21T05:54:21;2.90;99.00
3648;DHT22;1840;48.892;15.312;2024-02-21T05:56:50;2.90;98.90
3648;DHT22;1840;48.892;15.312;2024-02-21T05:59:20;3.00;98.80
3648;DHT22;1840;48.892;15.312;2024-02-21T06:01:57;3.00;98.50
3648;DHT22;1840;48.892;15.312;2024-02-21T06:04:25;2.90;98.50
3648;DHT22;1840;48.892;15.312;2024-02-21T06:06:54;3.10;98.50
3648;DHT22;1840;48.892;15.312;2024-02-21T06:09:23;3.10;98.20
3648;DHT22;1840;48.892;15.312;2024-02-21T06:11:52;3.10;98.10
3648;DHT22;1840;48.892;15.312;2024-02-21T06:14:21;3.10;98.30
3648;DHT22;1840;48.892;15.312;2024-02-21T06:16:51;3.20;98.30
3648;DHT22;1840;48.892;15.312;2024-02-21T06:19:21;3.20;98.20
3648;DHT22;1840;48.892;15.312;2024-02-21T06:21:49;3.20;98.00
3648;DHT22;1840;48.892;15.312;2024-02-21T06:24:17;3.30;98.10
3648;DHT22;1840;48.892;15.312;2024-02-21T06:26:47;3.30;98.10
3648;DHT22;1840;48.892;15.312;2024-02-21T06:29:16;3.30;98.20
3648;DHT22;1840;48.892;15.312;2024-02-21T06:31:45;3.30;98.00
3648;DHT22;1840;48.892;15.312;2024-02-21T06:34:13;3.30;97.80
3648;DHT22;1840;48.892;15.312;2024-02-21T06:36:45;3.30;97.90
3648;DHT22;1840;48.892;15.312;2024-02-21T06:39:13;3.30;98.10
3648;DHT22;1840;48.892;15.312;2024-02-21T06:41:42;3.20;98.00
3648;DHT22;1840;48.892;15.312;2024-02-21T06:44:10;3.10;98.00
3648;DHT22;1840;48.892;15.312;2024-02-21T06:46:38;3.00;98.10
3648;DHT22;1840;48.892;15.312;2024-02-21T06:49:08;3.10;98.20
3648;DHT22;1840;48.892;15.312;2024-02-21T06:51:44;3.10;98.10
3648;DHT22;1840;48.892;15.312;2024-02-21T06:54:12;3.10;98.10
3648;DHT22;1840;48.892;15.312;2024-02-21T06:56:41;3.10;98.20
3648;DHT22;1840;48.892;15.312;2024-02-21T06:59:09;3.20;98.10
3648;DHT22;1840;48.892;15.312;2024-02-21T07:01:38;3.20;98.00
3648;DHT22;1840;48.892;15.312;2024-02-21T07:04:07;3.30;97.70
3648;DHT22;1840;48.892;15.312;2024-02-21T07:06:35;3.20;97.80
3648;DHT22;1840;48.892;15.312;2024-02-21T07:09:05;3.20;98.00
3648;DHT22;1840;48.892;15.312;2024-02-21T07:11:33;3.20;98.00
3648;DHT22;1840;48.892;15.312;2024-02-21T07:14:02;3.60;98.30
3648;DHT22;1840;48.892;15.312;2024-02-21T07:16:29;4.10;98.20
3648;DHT22;1840;48.892;15.312;2024-02-21T07:18:59;4.60;97.50
3648;DHT22;1840;48.892;15.312;2024-02-21T07:21:28;4.80;97.00
3648;DHT22;1840;48.892;15.312;2024-02-21T07:23:56;5.00;96.80
3648;DHT22;1840;48.892;15.312;2024-02-21T07:26:26;5.20;96.60
3648;DHT22;1840;48.892;15.312;2024-02-21T07:28:54;5.50;96.10
3648;DHT22;1840;48.892;15.312;2024-02-21T07:31:23;5.30;95.80
3648;DHT22;1840;48.892;15.312;2024-02-21T07:33:54;5.10;96.00
3648;DHT22;1840;48.892;15.312;2024-02-21T07:36:27;4.70;96.40
3648;DHT22;1840;48.892;15.312;2024-02-21T07:38:56;4.70;96.40
3648;DHT22;1840;48.892;15.312;2024-02-21T07:41:26;4.60;96.60
3648;DHT22;1840;48.892;15.312;2024-02-21T07:43:55;4.60;96.60
3648;DHT22;1840;48.892;15.312;2024-02-21T07:46:25;4.40;96.60
3648;DHT22;1840;48.892;15.312;2024-02-21T07:48:53;4.30;97.00
3648;DHT22;1840;48.892;15.312;2024-02-21T07:51:22;4.40;97.20
3648;DHT22;1840;48.892;15.312;2024-02-21T07:53:55;4.80;97.70
3648;DHT22;1840;48.892;15.312;2024-02-21T07:56:23;5.50;97.00
3648;DHT22;1840;48.892;15.312;2024-02-21T07:58:56;5.60;96.40
3648;DHT22;1840;48.892;15.312;2024-02-21T08:01:25;5.50;96.30
3648;DHT22;1840;48.892;15.312;2024-02-21T08:03:53;5.50;96.50
3648;DHT22;1840;48.892;15.312;2024-02-21T08:06:22;5.50;96.30
3648;DHT22;1840;48.892;15.312;2024-02-21T08:08:52;5.40;96.40
3648;DHT22;1840;48.892;15.312;2024-02-21T08:11:20;5.20;96.40
3648;DHT22;1840;48.892;15.312;2024-02-21T08:13:49;5.30;97.10
3648;DHT22;1840;48.892;15.312;2024-02-21T08:16:19;5.30;96.70
3648;DHT22;1840;48.892;15.312;2024-02-21T08:18:47;4.90;96.90
3648;DHT22;1840;48.892;15.312;2024-02-21T08:21:16;5.00;96.90
3648;DHT22;1840;48.892;15.312;2024-02-21T08:23:44;4.90;96.90
3648;DHT22;1840;48.892;15.312;2024-02-21T08:26:13;4.90;97.10
3648;DHT22;1840;48.892;15.312;2024-02-21T08:28:41;5.20;97.00
3648;DHT22;1840;48.892;15.312;2024-02-21T08:31:09;5.50;96.50
3648;DHT22;1840;48.892;15.312;2024-02-21T08:33:39;5.60;96.30
3648;DHT22;1840;48.892;15.312;2024-02-21T08:36:08;5.80;96.20
3648;DHT22;1840;48.892;15.312;2024-02-21T08:38:37;6.00;96.30
3648;DHT22;1840;48.892;15.312;2024-02-21T08:41:06;6.10;95.80
3648;DHT22;1840;48.892;15.312;2024-02-21T08:43:34;5.80;96.30
3648;DHT22;1840;48.892;15.312;2024-02-21T08:46:04;5.80;96.00
3648;DHT22;1840;48.892;15.312;2024-02-21T08:48:34;5.50;96.10
3648;DHT22;1840;48.892;15.312;2024-02-21T08:51:04;5.60;96.00
3648;DHT22;1840;48.892;15.312;2024-02-21T08:53:33;5.70;96.00
3648;DHT22;1840;48.892;15.312;2024-02-21T08:56:01;5.60;96.10
3648;DHT22;1840;48.892;15.312;2024-02-21T08:58:30;5.70;96.40
3648;DHT22;1840;48.892;15.312;2024-02-21T09:00:59;6.00;96.20
3648;DHT22;1840;48.892;15.312;2024-02-21T09:03:27;5.90;95.80
3648;DHT22;1840;48.892;15.312;2024-02-21T09:05:56;5.70;95.80
3648;DHT22;1840;48.892;15.312;2024-02-21T09:08:26;5.60;96.10
3648;DHT22;1840;48.892;15.312;2024-02-21T09:10:55;5.70;96.30
3648;DHT22;1840;48.892;15.312;2024-02-21T09:13:23;5.90;95.90
3648;DHT22;1840;48.892;15.312;2024-02-21T09:15:52;5.90;96.00
3648;DHT22;1840;48.892;15.312;2024-02-21T09:18:20;6.10;96.20
3648;DHT22;1840;48.892;15.312;2024-02-21T09:20:49;6.40;95.60
3648;DHT22;1840;48.892;15.312;2024-02-21T09:23:17;6.50;95.40
3648;DHT22;1840;48.892;15.312;2024-02-21T09:25:48;6.70;95.40
3648;DHT22;1840;48.892;15.312;2024-02-21T09:28:16;6.70;95.10
3648;DHT22;1840;48.892;15.312;2024-02-21T09:30:46;6.80;95.10
3648;DHT22;1840;48.892;15.312;2024-02-21T09:33:15;6.90;95.20
3648;DHT22;1840;48.892;15.312;2024-02-21T09:35:58;7.00;95.10
3648;DHT22;1840;48.892;15.312;2024-02-21T09:38:26;7.10;94.40
3648;DHT22;1840;48.892;15.312;2024-02-21T09:40:59;7.00;94.70
3648;DHT22;1840;48.892;15.312;2024-02-21T09:43:29;7.00;94.60
3648;DHT22;1840;48.892;15.312;2024-02-21T09:45:59;7.00;94.40
3648;DHT22;1840;48.892;15.312;2024-02-21T09:48:42;6.50;95.10
3648;DHT22;1840;48.892;15.312;2024-02-21T09:51:15;6.40;95.00
3648;DHT22;1840;48.892;15.312;2024-02-21T09:53:45;6.30;95.20
3648;DHT22;1840;48.892;15.312;2024-02-21T09:56:30;6.40;95.30
3648;DHT22;1840;48.892;15.312;2024-02-21T09:58:59;6.60;95.30
3648;DHT22;1840;48.892;15.312;2024-02-21T10:01:31;7.20;95.40
3648;DHT22;1840;48.892;15.312;2024-02-21T10:04:04;7.40;94.50
3648;DHT22;1840;48.892;15.312;2024-02-21T10:06:36;7.50;94.10
3648;DHT22;1840;48.892;15.312;2024-02-21T10:09:06;7.40;94.20
3648;DHT22;1840;48.892;15.312;2024-02-21T10:11:37;7.30;93.60
3648;DHT22;1840;48.892;15.312;2024-02-21T10:14:06;7.40;93.70
3648;DHT22;1840;48.892;15.312;2024-02-21T10:16:36;7.50;94.10
3648;DHT22;1840;48.892;15.312;2024-02-21T10:19:05;7.80;93.90
3648;DHT22;1840;48.892;15.312;2024-02-21T10:21:33;7.80;93.40
3648;DHT22;1840;48.892;15.312;2024-02-21T10:24:02;7.60;93.60
3648;DHT22;1840;48.892;15.312;2024-02-21T10:26:31;7.30;93.80
3648;DHT22;1840;48.892;15.312;2024-02-21T10:29:02;7.30;93.90
3648;DHT22;1840;48.892;15.312;2024-02-21T10:31:31;7.20;93.80
3648;DHT22;1840;48.892;15.312;2024-02-21T10:34:00;7.10;94.10
3648;DHT22;1840;48.892;15.312;2024-02-21T10:36:31;7.00;94.00
3648;DHT22;1840;48.892;15.312;2024-02-21T10:38:59;6.90;93.90
3648;DHT22;1840;48.892;15.312;2024-02-21T10:41:28;6.80;94.00
3648;DHT22;1840;48.892;15.312;2024-02-21T10:44:03;6.90;94.10
3648;DHT22;1840;48.892;15.312;2024-02-21T10:46:36;6.90;94.00
3648;DHT22;1840;48.892;15.312;2024-02-21T10:49:10;6.90;94.10
3648;DHT22;1840;48.892;15.312;2024-02-21T10:51:43;7.20;93.90
3648;DHT22;1840;48.892;15.312;2024-02-21T10:54:30;7.50;93.50
3648;DHT22;1840;48.892;15.312;2024-02-21T10:57:04;7.40;93.10
3648;DHT22;1840;48.892;15.312;2024-02-21T10:59:35;7.50;92.80
3648;DHT22;1840;48.892;15.312;2024-02-21T11:02:05;7.80;93.20
3648;DHT22;1840;48.892;15.312;2024-02-21T11:04:34;8.00;93.00
3648;DHT22;1840;48.892;15.312;2024-02-21T11:07:05;7.90;92.30
3648;DHT22;1840;48.892;15.312;2024-02-21T11:09:37;8.10;92.10
3648;DHT22;1840;48.892;15.312;2024-02-21T11:12:06;8.30;92.00
3648;DHT22;1840;48.892;15.312;2024-02-21T11:14:38;8.40;91.60
3648;DHT22;1840;48.892;15.312;2024-02-21T11:17:15;8.40;91.70
3648;DHT22;1840;48.892;15.312;2024-02-21T11:19:44;8.40;91.50
3648;DHT22;1840;48.892;15.312;2024-02-21T11:22:17;8.30;91.80
3648;DHT22;1840;48.892;15.312;2024-02-21T11:24:46;8.50;92.30
3648;DHT22;1840;48.892;15.312;2024-02-21T11:27:15;8.80;92.10
3648;DHT22;1840;48.892;15.312;2024-02-21T11:29:48;8.90;91.20
3648;DHT22;1840;48.892;15.312;2024-02-21T11:32:19;8.90;91.30
3648;DHT22;1840;48.892;15.312;2024-02-21T11:34:55;8.70;92.00
3648;DHT22;1840;48.892;15.312;2024-02-21T11:37:25;8.60;91.50
3648;DHT22;1840;48.892;15.312;2024-02-21T11:39:55;8.50;91.30
3648;DHT22;1840;48.892;15.312;2024-02-21T11:42:25;8.50;91.30
3648;DHT22;1840;48.892;15.312;2024-02-21T11:44:56;8.50;91.70
3648;DHT22;1840;48.892;15.312;2024-02-21T11:47:25;8.50;91.60
3648;DHT22;1840;48.892;15.312;2024-02-21T11:49:54;8.50;91.30
3648;DHT22;1840;48.892;15.312;2024-02-21T11:52:23;8.50;91.30
3648;DHT22;1840;48.892;15.312;2024-02-21T11:54:54;8.20;91.70
3648;DHT22;1840;48.892;15.312;2024-02-21T11:57:25;8.30;91.50
3648;DHT22;1840;48.892;15.312;2024-02-21T11:59:55;8.30;91.10
3648;DHT22;1840;48.892;15.312;2024-02-21T12:02:27;8.30;91.60
3648;DHT22;1840;48.892;15.312;2024-02-21T12:04:56;8.50;91.80
3648;DHT22;1840;48.892;15.312;2024-02-21T12:07:25;8.50;91.60
3648;DHT22;1840;48.892;15.312;2024-02-21T12:09:59;8.30;91.20
3648;DHT22;1840;48.892;15.312;2024-02-21T12:12:29;8.00;91.60
3648;DHT22;1840;48.892;15.312;2024-02-21T12:14:59;8.10;91.90
3648;DHT22;1840;48.892;15.312;2024-02-21T12:17:27;7.90;91.20
3648;DHT22;1840;48.892;15.312;2024-02-21T12:19:56;7.80;91.50
3648;DHT22;1840;48.892;15.312;2024-02-21T12:22:25;7.90;91.60
3648;DHT22;1840;48.892;15.312;2024-02-21T12:24:54;7.80;91.60
3648;DHT22;1840;48.892;15.312;2024-02-21T12:27:25;8.00;91.40
3648;DHT22;1840;48.892;15.312;2024-02-21T12:29:54;8.00;91.50
3648;DHT22;1840;48.892;15.312;2024-02-21T12:32:24;8.20;91.80
3648;DHT22;1840;48.892;15.312;2024-02-21T12:34:52;8.30;91.80
3648;DHT22;1840;48.892;15.312;2024-02-21T12:37:22;8.40;91.80
3648;DHT22;1840;48.892;15.312;2024-02-21T12:39:52;8.50;91.80
3648;DHT22;1840;48.892;15.312;2024-02-21T12:42:20;8.30;91.90
3648;DHT22;1840;48.892;15.312;2024-02-21T12:44:51;8.30;91.80
3648;DHT22;1840;48.892;15.312;2024-02-21T12:47:19;8.20;90.90
3648;DHT22;1840;48.892;15.312;2024-02-21T12:49:52;8.50;91.50
3648;DHT22;1840;48.892;15.312;2024-02-21T12:52:21;8.70;91.10
3648;DHT22;1840;48.892;15.312;2024-02-21T12:54:50;8.80;90.80
3648;DHT22;1840;48.892;15.312;2024-02-21T12:57:19;8.90;90.60
3648;DHT22;1840;48.892;15.312;2024-02-21T12:59:51;9.10;90.50
3648;DHT22;1840;48.892;15.312;2024-02-21T13:02:19;9.20;90.10
3648;DHT22;1840;48.892;15.312;2024-02-21T13:04:48;9.30;89.70
3648;DHT22;1840;48.892;15.312;2024-02-21T13:07:18;9.40;90.00
3648;DHT22;1840;48.892;15.312;2024-02-21T13:09:47;9.60;90.00
3648;DHT22;1840;48.892;15.312;2024-02-21T13:12:15;9.50;89.70
3648;DHT22;1840;48.892;15.312;2024-02-21T13:14:44;9.10;90.00
3648;DHT22;1840;48.892;15.312;2024-02-21T13:17:12;9.20;89.20
3648;DHT22;1840;48.892;15.312;2024-02-21T13:19:42;8.90;89.20
3648;DHT22;1840;48.892;15.312;2024-02-21T13:22:10;8.80;90.10
3648;DHT22;1840;48.892;15.312;2024-02-21T13:24:40;8.70;90.60
3648;DHT22;1840;48.892;15.312;2024-02-21T13:27:09;8.70;89.20
3648;DHT22;1840;48.892;15.312;2024-02-21T13:29:38;8.80;90.30
3648;DHT22;1840;48.892;15.312;2024-02-21T13:32:07;8.90;90.40
3648;DHT22;1840;48.892;15.312;2024-02-21T13:34:35;9.00;90.20
3648;DHT22;1840;48.892;15.312;2024-02-21T13:37:04;9.20;90.10
3648;DHT22;1840;48.892;15.312;2024-02-21T13:39:33;9.30;88.90
3648;DHT22;1840;48.892;15.312;2024-02-21T13:42:04;9.30;90.30
3648;DHT22;1840;48.892;15.312;2024-02-21T13:44:33;9.40;89.80
3648;DHT22;1840;48.892;15.312;2024-02-21T13:47:03;9.40;89.30
3648;DHT22;1840;48.892;15.312;2024-02-21T13:49:35;9.30;88.70
3648;DHT22;1840;48.892;15.312;2024-02-21T13:52:04;9.30;89.40
3648;DHT22;1840;48.892;15.312;2024-02-21T13:54:33;9.40;89.80
3648;DHT22;1840;48.892;15.312;2024-02-21T13:57:01;9.40;89.60
3648;DHT22;1840;48.892;15.312;2024-02-21T13:59:31;9.50;89.50
3648;DHT22;1840;48.892;15.312;2024-02-21T14:02:01;9.40;89.60
3648;DHT22;1840;48.892;15.312;2024-02-21T14:04:29;9.30;89.70
3648;DHT22;1840;48.892;15.312;2024-02-21T14:06:58;9.40;89.00
3648;DHT22;1840;48.892;15.312;2024-02-21T14:09:26;9.50;89.50
3648;DHT22;1840;48.892;15.312;2024-02-21T14:11:56;9.40;89.20
3648;DHT22;1840;48.892;15.312;2024-02-21T14:14:24;9.60;88.90
3648;DHT22;1840;48.892;15.312;2024-02-21T14:16:54;9.70;87.60
3648;DHT22;1840;48.892;15.312;2024-02-21T14:19:23;9.70;87.70
3648;DHT22;1840;48.892;15.312;2024-02-21T14:21:52;9.70;86.70
3648;DHT22;1840;48.892;15.312;2024-02-21T14:24:20;9.70;87.20
3648;DHT22;1840;48.892;15.312;2024-02-21T14:26:48;9.60;87.30
3648;DHT22;1840;48.892;15.312;2024-02-21T14:29:17;9.50;86.90
3648;DHT22;1840;48.892;15.312;2024-02-21T14:31:45;9.30;88.10
3648;DHT22;1840;48.892;15.312;2024-02-21T14:34:15;9.30;87.90
3648;DHT22;1840;48.892;15.312;2024-02-21T14:36:44;9.40;87.70
3648;DHT22;1840;48.892;15.312;2024-02-21T14:39:12;9.40;87.70
3648;DHT22;1840;48.892;15.312;2024-02-21T14:41:41;9.50;88.00
3648;DHT22;1840;48.892;15.312;2024-02-21T14:44:10;9.30;87.70
3648;DHT22;1840;48.892;15.312;2024-02-21T14:46:41;9.40;87.80
3648;DHT22;1840;48.892;15.312;2024-02-21T14:49:10;9.40;87.70
3648;DHT22;1840;48.892;15.312;2024-02-21T14:51:40;9.40;87.90
3648;DHT22;1840;48.892;15.312;2024-02-21T14:54:09;9.50;87.90
3648;DHT22;1840;48.892;15.312;2024-02-21T14:56:37;9.50;88.40
3648;DHT22;1840;48.892;15.312;2024-02-21T14:59:06;9.50;87.90
3648;DHT22;1840;48.892;15.312;2024-02-21T15:01:47;9.40;87.10
3648;DHT22;1840;48.892;15.312;2024-02-21T15:04:15;9.50;87.30
3648;DHT22;1840;48.892;15.312;2024-02-21T15:06:45;9.40;87.80
3648;DHT22;1840;48.892;15.312;2024-02-21T15:09:15;9.30;87.30
3648;DHT22;1840;48.892;15.312;2024-02-21T15:11:46;9.40;86.80
3648;DHT22;1840;48.892;15.312;2024-02-21T15:14:14;9.40;87.50
3648;DHT22;1840;48.892;15.312;2024-02-21T15:16:43;9.30;87.30
3648;DHT22;1840;48.892;15.312;2024-02-21T15:19:11;9.40;86.40
3648;DHT22;1840;48.892;15.312;2024-02-21T15:21:40;9.50;87.00
3648;DHT22;1840;48.892;15.312;2024-02-21T15:24:09;9.40;87.50
3648;DHT22;1840;48.892;15.312;2024-02-21T15:26:38;9.40;87.60
3648;DHT22;1840;48.892;15.312;2024-02-21T15:29:06;9.30;87.30
3648;DHT22;1840;48.892;15.312;2024-02-21T15:31:35;9.40;86.90
3648;DHT22;1840;48.892;15.312;2024-02-21T15:34:04;9.40;86.00
3648;DHT22;1840;48.892;15.312;2024-02-21T15:36:33;9.30;85.60
3648;DHT22;1840;48.892;15.312;2024-02-21T15:39:01;9.50;86.30
3648;DHT22;1840;48.892;15.312;2024-02-21T15:41:31;9.40;87.00
3648;DHT22;1840;48.892;15.312;2024-02-21T15:44:00;9.20;87.00
3648;DHT22;1840;48.892;15.312;2024-02-21T15:46:31;9.20;86.70
3648;DHT22;1840;48.892;15.312;2024-02-21T15:49:03;9.10;87.20
3648;DHT22;1840;48.892;15.312;2024-02-21T15:51:32;9.10;88.40
3648;DHT22;1840;48.892;15.312;2024-02-21T15:54:02;9.10;86.70
3648;DHT22;1840;48.892;15.312;2024-02-21T15:56:32;9.00;86.20
3648;DHT22;1840;48.892;15.312;2024-02-21T15:59:00;8.80;86.80
3648;DHT22;1840;48.892;15.312;2024-02-21T16:01:30;8.70;87.50
3648;DHT22;1840;48.892;15.312;2024-02-21T16:04:02;8.50;87.70
3648;DHT22;1840;48.892;15.312;2024-02-21T16:06:30;8.30;89.00
3648;DHT22;1840;48.892;15.312;2024-02-21T16:08:59;8.10;90.00
3648;DHT22;1840;48.892;15.312;2024-02-21T16:11:27;7.90;90.50
3648;DHT22;1840;48.892;15.312;2024-02-21T16:13:58;7.60;90.90
3648;DHT22;1840;48.892;15.312;2024-02-21T16:16:28;7.40;91.50